Time;durP1;ratioP1;P1;durP2;ratioP2;P2;SDS_P1;SDS_P2;PMS_P1;PMS_P2;Temp;Humidity;BMP_temperature;BMP_pressure;BME280_temperature;BME280_humidity;BME280_pressure;Samples;Min_cycle;Max_cycle;Signal;HPM_P1;HPM_P2
2021/07/28 00:01:22;;;;;;;;;6.00;5.25;;;;;-143.39;100.00;63593.47;4886714;29;45181;-85
2021/07/28 00:03:49;;;;;;;;;7.50;6.00;;;;;-143.39;100.00;63593.47;4887327;29;45509;-85
2021/07/28 00:06:22;;;;;;;;;7.00;5.25;;;;;-143.39;100.00;63593.47;4886484;29;45459;-85
2021/07/28 00:08:48;;;;;;;;;6.00;6.00;;;;;-143.39;100.00;63593.47;4869553;29;47252;-84
2021/07/28 00:11:14;;;;;;;;;7.25;6.50;;;;;-143.39;100.00;63593.47;4902072;29;45154;-84
2021/07/28 00:13:40;;;;;;;;;7.50;6.50;;;;;-143.39;100.00;63593.47;4896081;29;45438;-85
2021/07/28 00:16:10;;;;;;;;;8.50;6.00;;;;;-143.39;100.00;63593.47;4885490;29;45593;-85
2021/07/28 00:24:00;;;;;;;;;6.00;5.25;;;;;-143.39;100.00;63593.47;4889072;29;45443;-85
2021/07/28 00:26:26;;;;;;;;;7.00;6.25;;;;;-143.39;100.00;63593.47;4886589;29;45586;-84
2021/07/28 00:28:52;;;;;;;;;6.50;5.00;;;;;-143.39;100.00;63593.47;4885409;29;45427;-85
2021/07/28 00:31:17;;;;;;;;;7.00;5.00;;;;;-143.39;100.00;63593.47;4885615;29;45545;-85
2021/07/28 00:33:42;;;;;;;;;6.25;5.50;;;;;-143.39;100.00;63593.47;4885502;29;45240;-85
2021/07/28 00:36:08;;;;;;;;;5.25;4.00;;;;;-143.39;100.00;63593.47;4885781;29;45375;-85
2021/07/28 00:38:33;;;;;;;;;4.75;3.00;;;;;-143.39;100.00;63593.47;4885289;29;45446;-84
2021/07/28 00:40:59;;;;;;;;;7.25;5.00;;;;;-143.39;100.00;63593.47;4885687;29;45413;-84
2021/07/28 00:43:29;;;;;;;;;6.00;5.00;;;;;-143.39;100.00;63593.47;4888193;29;45523;-84
2021/07/28 00:45:54;;;;;;;;;12.50;8.00;;;;;-143.39;100.00;63593.47;4887456;29;45526;-84
2021/07/28 00:48:20;;;;;;;;;12.25;7.00;;;;;-143.39;100.00;63593.47;4885520;29;45462;-84
2021/07/28 00:50:45;;;;;;;;;9.50;6.75;;;;;-143.39;100.00;63593.47;4885762;29;45430;-84
2021/07/28 00:53:18;;;;;;;;;6.75;5.50;;;;;-143.39;100.00;63593.47;4885732;29;45318;-84
2021/07/28 00:55:47;;;;;;;;;5.25;5.25;;;;;-143.39;100.00;63593.47;4889438;29;45217;-84
2021/07/28 00:58:13;;;;;;;;;8.50;6.00;;;;;-143.39;100.00;63593.47;4873060;29;48254;-85
2021/07/28 01:00:39;;;;;;;;;7.25;6.00;;;;;-143.39;100.00;63593.47;4885102;29;45390;-85
2021/07/28 01:03:05;;;;;;;;;8.25;5.50;;;;;-143.39;100.00;63593.47;4886095;29;45352;-84
2021/07/28 01:05:30;;;;;;;;;3.50;2.50;;;;;-143.39;100.00;63593.47;4888502;29;45719;-84
2021/07/28 01:07:55;;;;;;;;;3.50;3.50;;;;;-143.39;100.00;63593.47;4887427;29;45962;-84
2021/07/28 01:10:21;;;;;;;;;4.00;4.00;;;;;-143.39;100.00;63593.47;4894676;29;45372;-84
2021/07/28 01:12:52;;;;;;;;;4.00;3.00;;;;;-143.39;100.00;63593.47;4902796;29;45404;-84
2021/07/28 01:15:33;;;;;;;;;4.50;4.00;;;;;-143.39;100.00;63593.47;4876951;29;45657;-84
2021/07/28 01:18:07;;;;;;;;;3.50;3.50;;;;;-143.39;100.00;63593.47;4886939;29;45372;-85
2021/07/28 01:20:37;;;;;;;;;6.75;4.25;;;;;-143.39;100.00;63593.47;4885357;29;45221;-84
2021/07/28 01:23:21;;;;;;;;;5.75;3.75;;;;;-143.39;100.00;63593.47;4885562;29;45270;-84
2021/07/28 01:25:48;;;;;;;;;5.50;4.00;;;;;-143.39;100.00;63593.47;4888376;29;45311;-84
2021/07/28 01:28:14;;;;;;;;;4.75;3.00;;;;;-143.39;100.00;63593.47;4888939;29;45390;-84
2021/07/28 01:30:39;;;;;;;;;4.00;4.00;;;;;-143.39;100.00;63593.47;4867575;29;45404;-84
2021/07/28 01:33:05;;;;;;;;;7.00;5.00;;;;;-143.39;100.00;63593.47;4885907;29;45557;-84
2021/07/28 01:35:34;;;;;;;;;7.75;5.00;;;;;-143.39;100.00;63593.47;4869545;29;46364;-85
2021/07/28 01:38:00;;;;;;;;;5.25;4.00;;;;;-143.39;100.00;63593.47;4877837;29;47210;-84
2021/07/28 01:40:25;;;;;;;;;3.00;2.75;;;;;-143.39;100.00;63593.47;4893925;29;45411;-85
2021/07/28 01:42:51;;;;;;;;;5.75;3.75;;;;;-143.39;100.00;63593.47;4872715;29;45176;-85
2021/07/28 01:45:17;;;;;;;;;7.25;4.25;;;;;-143.39;100.00;63593.47;4872556;29;45533;-84
2021/07/28 01:47:43;;;;;;;;;4.25;2.75;;;;;-143.39;100.00;63593.47;4890294;29;45332;-84
2021/07/28 01:50:10;;;;;;;;;3.00;3.00;;;;;-143.39;100.00;63593.47;4888942;29;45398;-85
2021/07/28 01:52:36;;;;;;;;;2.50;2.50;;;;;-143.39;100.00;63593.47;4902003;29;45301;-84
2021/07/28 01:55:04;;;;;;;;;5.00;3.75;;;;;-143.39;100.00;63593.47;4884882;29;45250;-84
2021/07/28 01:57:29;;;;;;;;;5.00;3.75;;;;;-143.39;100.00;63593.47;4893531;29;46470;-85
2021/07/28 02:00:00;;;;;;;;;4.00;3.25;;;;;-143.39;100.00;63593.47;4867808;29;45472;-84
2021/07/28 02:02:28;;;;;;;;;3.25;3.25;;;;;-143.39;100.00;63593.47;4884907;29;45232;-84
2021/07/28 02:04:56;;;;;;;;;3.75;2.50;;;;;-143.39;100.00;63593.47;4867836;29;45456;-85
2021/07/28 02:07:22;;;;;;;;;5.25;3.50;;;;;-143.39;100.00;63593.47;4884359;29;45483;-84
2021/07/28 02:09:47;;;;;;;;;3.00;3.00;;;;;-143.39;100.00;63593.47;4889226;29;45479;-84
2021/07/28 02:12:12;;;;;;;;;2.75;2.75;;;;;-143.39;100.00;63593.47;4905088;29;45471;-84
2021/07/28 02:14:38;;;;;;;;;3.00;3.00;;;;;-143.39;100.00;63593.47;4889088;29;45311;-85
2021/07/28 02:17:04;;;;;;;;;2.75;2.75;;;;;-143.39;100.00;63593.47;4884057;29;45662;-85
2021/07/28 02:19:29;;;;;;;;;5.50;3.75;;;;;-143.39;100.00;63593.47;4884075;29;45439;-84
2021/07/28 02:21:54;;;;;;;;;4.25;4.25;;;;;-143.39;100.00;63593.47;4884087;29;45235;-84
2021/07/28 02:24:19;;;;;;;;;5.75;3.50;;;;;-143.39;100.00;63593.47;4884277;29;45549;-84
2021/07/28 02:26:45;;;;;;;;;5.50;2.25;;;;;-143.39;100.00;63593.47;4882981;29;48320;-84
2021/07/28 02:29:10;;;;;;;;;3.00;3.00;;;;;-143.39;100.00;63593.47;4867030;29;45337;-84
2021/07/28 02:31:35;;;;;;;;;3.50;3.25;;;;;-143.39;100.00;63593.47;4884250;29;45258;-84
2021/07/28 02:34:01;;;;;;;;;2.25;2.25;;;;;-143.39;100.00;63593.47;4887048;29;45705;-84
2021/07/28 02:36:26;;;;;;;;;4.00;2.25;;;;;-143.39;100.00;63593.47;4887296;29;46435;-84
2021/07/28 02:38:51;;;;;;;;;3.25;3.00;;;;;-143.39;100.00;63593.47;4867363;29;45200;-84
2021/07/28 02:41:17;;;;;;;;;6.00;3.75;;;;;-143.39;100.00;63593.47;4884697;29;45245;-84
2021/07/28 02:43:42;;;;;;;;;6.25;3.25;;;;;-143.39;100.00;63593.47;4883473;29;45181;-84
2021/07/28 02:46:08;;;;;;;;;4.00;3.50;;;;;-143.39;100.00;63593.47;4887623;29;46471;-84
2021/07/28 02:48:33;;;;;;;;;5.25;2.25;;;;;-143.39;100.00;63593.47;4887654;29;45209;-84
2021/07/28 02:50:58;;;;;;;;;2.50;2.50;;;;;-143.39;100.00;63593.47;4887587;29;45186;-84
2021/07/28 02:53:24;;;;;;;;;3.75;3.75;;;;;-143.39;100.00;63593.47;4887076;29;45447;-84
2021/07/28 02:55:50;;;;;;;;;4.00;4.00;;;;;-143.39;100.00;63593.47;4891657;29;45483;-84
2021/07/28 02:58:15;;;;;;;;;2.25;1.75;;;;;-143.39;100.00;63593.47;4892973;29;45297;-84
2021/07/28 03:00:40;;;;;;;;;3.00;2.00;;;;;-143.39;100.00;63593.47;4887240;29;45366;-84
2021/07/28 03:03:08;;;;;;;;;3.00;3.00;;;;;-143.39;100.00;63593.47;4886830;29;45379;-84
2021/07/28 03:05:33;;;;;;;;;4.50;2.75;;;;;-143.39;100.00;63593.47;4887253;29;46227;-84
2021/07/28 03:07:58;;;;;;;;;4.50;2.50;;;;;-143.39;100.00;63593.47;4869969;29;45345;-84
2021/07/28 03:10:24;;;;;;;;;5.00;3.00;;;;;-143.39;100.00;63593.47;4879907;29;45561;-84
2021/07/28 03:12:49;;;;;;;;;2.75;2.50;;;;;-143.39;100.00;63593.47;4903417;29;45248;-84
2021/07/28 03:15:15;;;;;;;;;4.75;2.25;;;;;-143.39;100.00;63593.47;4869936;29;47196;-84
2021/07/28 03:17:40;;;;;;;;;3.00;2.75;;;;;-143.39;100.00;63593.47;4886581;29;45423;-84
2021/07/28 03:20:06;;;;;;;;;2.00;2.00;;;;;-143.39;100.00;63593.47;4886833;29;45193;-84
2021/07/28 03:22:32;;;;;;;;;1.75;1.75;;;;;-143.39;100.00;63593.47;4886685;29;45309;-84
2021/07/28 03:24:57;;;;;;;;;4.00;3.25;;;;;-143.39;100.00;63593.47;4886673;29;46272;-84
2021/07/28 03:27:23;;;;;;;;;3.75;2.00;;;;;-143.39;100.00;63593.47;4869557;29;45749;-84
2021/07/28 03:29:48;;;;;;;;;3.25;3.25;;;;;-143.39;100.00;63593.47;4895179;29;45262;-84
2021/07/28 03:32:13;;;;;;;;;2.00;2.00;;;;;-143.39;100.00;63593.47;4890613;29;45222;-84
2021/07/28 03:34:39;;;;;;;;;5.25;3.25;;;;;-143.39;100.00;63593.47;4886944;29;45194;-84
2021/07/28 03:37:04;;;;;;;;;3.75;2.00;;;;;-143.39;100.00;63593.47;4901345;29;45793;-84
2021/07/28 03:39:30;;;;;;;;;3.50;2.50;;;;;-143.39;100.00;63593.47;4870098;29;45519;-84
2021/07/28 03:41:55;;;;;;;;;4.00;2.00;;;;;-143.39;100.00;63593.47;4887697;29;45668;-83
2021/07/28 03:44:21;;;;;;;;;4.00;3.50;;;;;-143.39;100.00;63593.47;4887838;29;45940;-84
2021/07/28 03:46:46;;;;;;;;;2.00;2.00;;;;;-143.39;100.00;63593.47;4884842;29;46170;-84
2021/07/28 03:49:11;;;;;;;;;4.50;2.00;;;;;-143.39;100.00;63593.47;4886265;29;45440;-84
2021/07/28 03:51:37;;;;;;;;;2.75;2.75;;;;;-143.39;100.00;63593.47;4900626;29;45990;-84
2021/07/28 03:54:02;;;;;;;;;6.75;3.00;;;;;-143.39;100.00;63593.47;4885397;29;45847;-84
2021/07/28 03:56:27;;;;;;;;;3.75;2.75;;;;;-143.39;100.00;63593.47;4893243;29;45468;-84
2021/07/28 03:58:53;;;;;;;;;5.00;2.00;;;;;-143.39;100.00;63593.47;4886248;29;45425;-84
2021/07/28 04:01:20;;;;;;;;;1.75;1.75;;;;;-143.39;100.00;63593.47;4886830;29;45486;-84
2021/07/28 04:03:46;;;;;;;;;3.50;1.75;;;;;-143.39;100.00;63593.47;4887884;29;45317;-84
2021/07/28 04:06:11;;;;;;;;;2.50;2.50;;;;;-143.39;100.00;63593.47;4887342;29;45226;-84
2021/07/28 04:08:36;;;;;;;;;3.00;1.25;;;;;-143.39;100.00;63593.47;4886845;29;45309;-84
2021/07/28 04:11:02;;;;;;;;;2.00;2.00;;;;;-143.39;100.00;63593.47;4900774;29;45436;-84
2021/07/28 04:13:27;;;;;;;;;1.00;1.00;;;;;-143.39;100.00;63593.47;4880584;29;47093;-84
2021/07/28 04:15:52;;;;;;;;;2.75;2.25;;;;;-143.39;100.00;63593.47;4885836;29;45222;-84
2021/07/28 04:18:17;;;;;;;;;3.00;2.50;;;;;-143.39;100.00;63593.47;4886033;29;45264;-84
2021/07/28 04:20:43;;;;;;;;;3.25;2.75;;;;;-143.39;100.00;63593.47;4886000;29;45245;-84
2021/07/28 04:23:08;;;;;;;;;4.25;2.50;;;;;-143.39;100.00;63593.47;4886516;29;45668;-84
2021/07/28 04:25:33;;;;;;;;;3.50;2.50;;;;;-143.39;100.00;63593.47;4888514;29;45226;-84
2021/07/28 04:27:59;;;;;;;;;3.50;2.75;;;;;-143.39;100.00;63593.47;4890054;29;45197;-84
2021/07/28 04:30:24;;;;;;;;;2.75;2.75;;;;;-143.39;100.00;63593.47;4903094;29;45429;-84
2021/07/28 04:32:49;;;;;;;;;2.25;2.25;;;;;-143.39;100.00;63593.47;4885381;29;45450;-84
2021/07/28 04:35:15;;;;;;;;;3.50;2.75;;;;;-143.39;100.00;63593.47;4868465;29;45344;-84
2021/07/28 04:37:41;;;;;;;;;2.75;1.75;;;;;-143.39;100.00;63593.47;4885760;29;45733;-84
2021/07/28 04:40:06;;;;;;;;;3.75;2.25;;;;;-143.39;100.00;63593.47;4885385;29;45398;-83
2021/07/28 04:42:32;;;;;;;;;2.75;2.75;;;;;-143.39;100.00;63593.47;4883991;29;47360;-84
2021/07/28 04:44:57;;;;;;;;;3.00;2.50;;;;;-143.39;100.00;63593.47;4885868;29;45449;-83
2021/07/28 04:47:23;;;;;;;;;3.75;2.75;;;;;-143.39;100.00;63593.47;4887318;29;45338;-83
2021/07/28 04:49:48;;;;;;;;;1.75;1.75;;;;;-143.39;100.00;63593.47;4886403;29;45358;-84
2021/07/28 04:52:14;;;;;;;;;3.00;2.75;;;;;-143.39;100.00;63593.47;4868330;29;47585;-84
2021/07/28 04:54:39;;;;;;;;;4.00;3.00;;;;;-143.39;100.00;63593.47;4885153;29;45433;-84
2021/07/28 04:57:05;;;;;;;;;3.00;3.00;;;;;-143.39;100.00;63593.47;4892996;29;45172;-83
2021/07/28 04:59:31;;;;;;;;;4.50;2.00;;;;;-143.39;100.00;63593.47;4897771;29;45422;-84
2021/07/28 05:01:56;;;;;;;;;3.50;1.75;;;;;-143.39;100.00;63593.47;4884903;29;45240;-84
2021/07/28 05:04:22;;;;;;;;;2.75;2.50;;;;;-143.39;100.00;63593.47;4868114;29;45222;-84
2021/07/28 05:06:47;;;;;;;;;2.25;1.75;;;;;-143.39;100.00;63593.47;4886727;29;45266;-84
2021/07/28 05:09:12;;;;;;;;;6.25;3.00;;;;;-143.39;100.00;63593.47;4870009;29;46144;-84
2021/07/28 05:11:38;;;;;;;;;4.50;3.00;;;;;-143.39;100.00;63593.47;4903820;29;45887;-84
2021/07/28 05:14:04;;;;;;;;;2.00;2.00;;;;;-143.39;100.00;63593.47;4892157;29;45234;-84
2021/07/28 05:16:29;;;;;;;;;3.00;3.00;;;;;-143.39;100.00;63593.47;4884807;29;45488;-84
2021/07/28 05:18:54;;;;;;;;;3.00;3.00;;;;;-143.39;100.00;63593.47;4867912;29;45447;-84
2021/07/28 05:21:20;;;;;;;;;5.75;2.75;;;;;-143.39;100.00;63593.47;4884623;29;45937;-84
2021/07/28 05:23:45;;;;;;;;;3.75;2.50;;;;;-143.39;100.00;63593.47;4884861;29;45259;-84
2021/07/28 05:26:12;;;;;;;;;5.25;2.00;;;;;-143.39;100.00;63593.47;4884970;29;45500;-84
2021/07/28 05:28:37;;;;;;;;;4.50;2.00;;;;;-143.39;100.00;63593.47;4884804;29;45461;-84
2021/07/28 05:31:03;;;;;;;;;4.75;3.25;;;;;-143.39;100.00;63593.47;4898520;29;45290;-84
2021/07/28 05:33:28;;;;;;;;;6.00;3.00;;;;;-143.39;100.00;63593.47;4886076;29;45379;-84
2021/07/28 05:35:54;;;;;;;;;4.25;3.00;;;;;-143.39;100.00;63593.47;4884650;29;45443;-84
2021/07/28 05:38:19;;;;;;;;;4.25;3.00;;;;;-143.39;100.00;63593.47;4884715;29;45329;-84
2021/07/28 05:40:44;;;;;;;;;2.00;2.00;;;;;-143.39;100.00;63593.47;4867476;29;47852;-84
2021/07/28 05:43:10;;;;;;;;;1.25;1.25;;;;;-143.39;100.00;63593.47;4884637;29;45169;-84
2021/07/28 05:45:35;;;;;;;;;4.00;2.00;;;;;-143.39;100.00;63593.47;4884418;29;45237;-84
2021/07/28 05:48:00;;;;;;;;;5.00;2.00;;;;;-143.39;100.00;63593.47;4885146;29;45145;-84
2021/07/28 05:50:26;;;;;;;;;2.00;1.00;;;;;-143.39;100.00;63593.47;4867851;29;47973;-84
2021/07/28 05:52:51;;;;;;;;;2.00;2.00;;;;;-143.39;100.00;63593.47;4885408;29;45258;-84
2021/07/28 05:55:17;;;;;;;;;4.25;2.50;;;;;-143.39;100.00;63593.47;4885286;29;45225;-83
2021/07/28 05:57:42;;;;;;;;;4.00;2.50;;;;;-143.39;100.00;63593.47;4893653;29;45394;-84
2021/07/28 06:00:08;;;;;;;;;3.50;2.00;;;;;-143.39;100.00;63593.47;4884487;29;45427;-84
2021/07/28 06:02:33;;;;;;;;;4.75;3.00;;;;;-143.39;100.00;63593.47;4867390;29;45841;-84
2021/07/28 06:04:59;;;;;;;;;7.00;2.50;;;;;-143.39;100.00;63593.47;4884604;29;45138;-84
2021/07/28 06:07:24;;;;;;;;;3.00;3.00;;;;;-143.39;100.00;63593.47;4884652;29;45228;-84
2021/07/28 06:09:49;;;;;;;;;3.25;2.75;;;;;-143.39;100.00;63593.47;4872822;29;47151;-84
2021/07/28 06:12:18;;;;;;;;;1.75;1.75;;;;;-143.39;100.00;63593.47;4902054;29;45713;-84
2021/07/28 06:14:44;;;;;;;;;4.00;2.25;;;;;-143.39;100.00;63593.47;4888849;29;45427;-84
2021/07/28 06:17:10;;;;;;;;;3.50;2.75;;;;;-143.39;100.00;63593.47;4888851;29;45459;-84
2021/07/28 06:19:36;;;;;;;;;2.50;1.25;;;;;-143.39;100.00;63593.47;4873641;29;47238;-83
2021/07/28 06:22:01;;;;;;;;;3.25;2.25;;;;;-143.39;100.00;63593.47;4908249;29;46133;-83
2021/07/28 06:24:28;;;;;;;;;6.00;2.00;;;;;-143.39;100.00;63593.47;4894198;29;45226;-84
2021/07/28 06:26:53;;;;;;;;;3.25;2.00;;;;;-143.39;100.00;63593.47;4895643;29;44758;-83
2021/07/28 06:29:25;;;;;;;;;4.00;2.50;;;;;-143.39;100.00;63593.47;4878807;29;47273;-84
2021/07/28 06:31:51;;;;;;;;;3.00;3.00;;;;;-143.39;100.00;63593.47;4892342;29;45838;-84
2021/07/28 06:34:17;;;;;;;;;2.00;2.00;;;;;-143.39;100.00;63593.47;4905189;29;45299;-84
2021/07/28 06:36:42;;;;;;;;;4.00;2.50;;;;;-143.39;100.00;63593.47;4892782;29;45437;-84
2021/07/28 06:39:08;;;;;;;;;4.00;3.50;;;;;-143.39;100.00;63593.47;4903720;29;45228;-84
2021/07/28 06:41:33;;;;;;;;;2.50;2.00;;;;;-143.39;100.00;63593.47;4891599;29;45154;-84
2021/07/28 06:43:58;;;;;;;;;2.25;2.25;;;;;-143.39;100.00;63593.47;4896356;29;45233;-83
2021/07/28 06:46:24;;;;;;;;;2.75;2.00;;;;;-143.39;100.00;63593.47;4900256;29;45230;-84
2021/07/28 06:48:49;;;;;;;;;2.25;2.25;;;;;-143.39;100.00;63593.47;4886239;29;47177;-84
2021/07/28 06:51:14;;;;;;;;;3.25;3.25;;;;;-143.39;100.00;63593.47;4884318;29;45205;-84
2021/07/28 06:53:40;;;;;;;;;5.00;2.00;;;;;-143.39;100.00;63593.47;4909721;29;45446;-84
2021/07/28 06:56:05;;;;;;;;;2.25;2.25;;;;;-143.39;100.00;63593.47;4905415;29;45422;-84
2021/07/28 06:58:30;;;;;;;;;3.25;2.25;;;;;-143.39;100.00;63593.47;4886483;29;47456;-84
2021/07/28 07:00:58;;;;;;;;;3.75;3.00;;;;;-143.39;100.00;63593.47;4887880;29;45257;-84
2021/07/28 07:03:24;;;;;;;;;2.50;2.00;;;;;-143.39;100.00;63593.47;4905049;29;45463;-84
2021/07/28 07:05:49;;;;;;;;;3.75;3.00;;;;;-143.39;100.00;63593.47;4879536;29;45420;-84
2021/07/28 07:08:15;;;;;;;;;4.00;3.00;;;;;-143.39;100.00;63593.47;4871527;29;47277;-84
2021/07/28 07:10:41;;;;;;;;;4.25;3.00;;;;;-143.39;100.00;63593.47;4905072;29;45261;-84
2021/07/28 07:13:06;;;;;;;;;4.50;2.50;;;;;-143.39;100.00;63593.47;4872972;29;45374;-84
2021/07/28 07:15:31;;;;;;;;;4.75;4.00;;;;;-143.39;100.00;63593.47;4873803;29;45716;-84
2021/07/28 07:17:57;;;;;;;;;3.25;3.25;;;;;-143.39;100.00;63593.47;4891293;29;46284;-84
2021/07/28 07:20:22;;;;;;;;;3.00;3.00;;;;;-143.39;100.00;63593.47;4891384;29;45484;-84
2021/07/28 07:22:47;;;;;;;;;4.25;3.00;;;;;-143.39;100.00;63593.47;4874458;29;45249;-84
2021/07/28 07:25:13;;;;;;;;;5.25;3.25;;;;;-143.39;100.00;63593.47;4889793;29;45213;-84
2021/07/28 07:27:40;;;;;;;;;5.00;3.75;;;;;-143.39;100.00;63593.47;4886217;29;45348;-84
2021/07/28 07:30:07;;;;;;;;;4.50;3.25;;;;;-143.39;100.00;63593.47;4886909;29;45404;-84
2021/07/28 07:32:33;;;;;;;;;5.25;3.00;;;;;-143.39;100.00;63593.47;4871633;29;45351;-84
2021/07/28 07:34:59;;;;;;;;;5.00;2.25;;;;;-143.39;100.00;63593.47;4887325;29;45312;-84
2021/07/28 07:37:25;;;;;;;;;4.00;4.00;;;;;-143.39;100.00;63593.47;4886910;29;45428;-84
2021/07/28 07:39:50;;;;;;;;;4.00;4.00;;;;;-143.39;100.00;63593.47;4886736;29;45765;-82
2021/07/28 07:42:16;;;;;;;;;5.00;4.75;;;;;-143.39;100.00;63593.47;4887071;29;45450;-82
2021/07/28 07:44:43;;;;;;;;;7.00;4.00;;;;;-143.39;100.00;63593.47;4887555;29;45481;-82
2021/07/28 07:47:09;;;;;;;;;5.75;2.75;;;;;-143.39;100.00;63593.47;4886274;29;45333;-82
2021/07/28 07:49:34;;;;;;;;;3.00;3.00;;;;;-143.39;100.00;63593.47;4886524;29;45214;-82
2021/07/28 07:52:00;;;;;;;;;3.25;1.50;;;;;-143.39;100.00;63593.47;4900953;29;45439;-82
2021/07/28 07:54:26;;;;;;;;;4.50;3.00;;;;;-143.39;100.00;63593.47;4886439;29;45500;-84
2021/07/28 07:56:51;;;;;;;;;6.25;2.50;;;;;-143.39;100.00;63593.47;4894093;29;45498;-82
2021/07/28 07:59:16;;;;;;;;;2.50;2.50;;;;;-143.39;100.00;63593.47;4886376;29;45371;-82
2021/07/28 08:01:42;;;;;;;;;4.00;3.00;;;;;-143.39;100.00;63593.47;4886151;29;45231;-82
2021/07/28 08:04:07;;;;;;;;;4.00;3.00;;;;;-143.39;100.00;63593.47;4886422;29;45338;-84
2021/07/28 08:06:33;;;;;;;;;5.00;2.00;;;;;-143.39;100.00;63593.47;4886881;29;46363;-84
2021/07/28 08:08:58;;;;;;;;;6.00;4.25;;;;;-143.39;100.00;63593.47;4886342;29;45440;-83
2021/07/28 08:11:23;;;;;;;;;4.25;3.00;;;;;-143.39;100.00;63593.47;4886414;29;45575;-83
2021/07/28 08:13:49;;;;;;;;;5.00;2.25;;;;;-143.39;100.00;63593.47;4895209;29;45514;-83
2021/07/28 08:16:18;;;;;;;;;4.75;4.00;;;;;-143.39;100.00;63593.47;4868923;29;46440;-83
2021/07/28 08:18:44;;;;;;;;;4.25;3.00;;;;;-143.39;100.00;63593.47;4885994;29;45413;-84
2021/07/28 08:21:10;;;;;;;;;3.75;3.75;;;;;-143.39;100.00;63593.47;4885875;29;45309;-84
2021/07/28 08:23:38;;;;;;;;;3.75;3.00;;;;;-143.39;100.00;63593.47;4886117;29;45467;-84
2021/07/28 08:26:04;;;;;;;;;2.75;2.75;;;;;-143.39;100.00;63593.47;4886440;29;46233;-84
2021/07/28 08:28:30;;;;;;;;;4.00;3.00;;;;;-143.39;100.00;63593.47;4886859;29;45553;-84
2021/07/28 08:30:55;;;;;;;;;4.25;3.25;;;;;-143.39;100.00;63593.47;4886643;29;45357;-84
2021/07/28 08:33:25;;;;;;;;;2.50;2.00;;;;;-143.39;100.00;63593.47;4885806;29;45469;-84
2021/07/28 08:35:54;;;;;;;;;4.00;3.00;;;;;-143.39;100.00;63593.47;4885558;29;45623;-84
2021/07/28 08:38:21;;;;;;;;;1.00;1.00;;;;;-143.39;100.00;63593.47;4868907;29;45688;-84
2021/07/28 08:41:01;;;;;;;;;3.00;3.00;;;;;-143.39;100.00;63593.47;4880694;29;45500;-85
2021/07/28 08:43:32;;;;;;;;;1.25;1.25;;;;;-143.39;100.00;63593.47;4868670;29;45845;-85
2021/07/28 08:46:01;;;;;;;;;1.00;1.00;;;;;-143.39;100.00;63593.47;4885351;29;47277;-85
2021/07/28 08:48:30;;;;;;;;;3.25;1.25;;;;;-143.39;100.00;63593.47;4869866;29;45557;-85
2021/07/28 08:50:58;;;;;;;;;2.00;1.00;;;;;-143.39;100.00;63593.47;4886816;29;45228;-84
2021/07/28 08:53:24;;;;;;;;;1.00;1.00;;;;;-143.39;100.00;63593.47;4884639;29;45878;-85
2021/07/28 08:55:54;;;;;;;;;1.00;1.00;;;;;-143.39;100.00;63593.47;4890060;29;45576;-84
2021/07/28 08:58:24;;;;;;;;;1.50;1.00;;;;;-143.39;100.00;63593.47;4889248;29;45350;-84
2021/07/28 09:00:51;;;;;;;;;0.50;0.50;;;;;-143.39;100.00;63593.47;4885395;29;45409;-84
2021/07/28 09:03:17;;;;;;;;;2.25;0.50;;;;;-143.39;100.00;63593.47;4885146;29;45371;-84
2021/07/28 09:05:54;;;;;;;;;3.00;2.75;;;;;-143.39;100.00;63593.47;4885217;29;46599;-84
2021/07/28 09:08:32;;;;;;;;;4.50;2.00;;;;;-143.39;100.00;63593.47;4885141;29;45245;-84
2021/07/28 09:10:58;;;;;;;;;2.75;2.00;;;;;-143.39;100.00;63593.47;4899969;29;45317;-84
2021/07/28 09:13:35;;;;;;;;;3.00;2.00;;;;;-143.39;100.00;63593.47;4881472;29;45262;-84
2021/07/28 09:16:12;;;;;;;;;3.00;3.00;;;;;-143.39;100.00;63593.47;4867603;29;48199;-85
2021/07/28 09:18:39;;;;;;;;;3.50;2.00;;;;;-143.39;100.00;63593.47;4867713;29;45475;-84
2021/07/28 09:21:24;;;;;;;;;4.00;2.50;;;;;-143.39;100.00;63593.47;4884882;29;45423;-85
2021/07/28 09:23:53;;;;;;;;;2.00;1.00;;;;;-143.39;100.00;63593.47;4899607;29;45427;-82
2021/07/28 09:26:33;;;;;;;;;2.25;2.00;;;;;-143.39;100.00;63593.47;4891216;29;46198;-85
2021/07/28 09:29:03;;;;;;;;;2.25;2.00;;;;;-143.39;100.00;63593.47;4903860;29;45244;-85
2021/07/28 09:31:38;;;;;;;;;5.00;2.00;;;;;-143.39;100.00;63593.47;4903876;29;45298;-85
2021/07/28 09:34:08;;;;;;;;;1.50;1.50;;;;;-143.39;100.00;63593.47;4904121;29;45226;-85
2021/07/28 09:36:35;;;;;;;;;3.00;2.00;;;;;-143.39;100.00;63593.47;4904144;29;45645;-85
2021/07/28 09:39:02;;;;;;;;;4.00;2.25;;;;;-143.39;100.00;63593.47;4903577;29;45358;-85
2021/07/28 09:41:28;;;;;;;;;5.00;2.00;;;;;-143.39;100.00;63593.47;4886788;29;45341;-85
2021/07/28 09:44:02;;;;;;;;;3.75;3.00;;;;;-143.39;100.00;63593.47;4886506;29;45570;-85
2021/07/28 09:46:36;;;;;;;;;3.00;3.00;;;;;-143.39;100.00;63593.47;4903350;29;45447;-85
2021/07/28 09:49:05;;;;;;;;;2.25;2.00;;;;;-143.39;100.00;63593.47;4886606;29;46273;-85
2021/07/28 09:51:39;;;;;;;;;3.00;2.00;;;;;-143.39;100.00;63593.47;4902906;29;45505;-85
2021/07/28 09:54:07;;;;;;;;;4.00;3.00;;;;;-143.39;100.00;63593.47;4904861;29;45444;-85
2021/07/28 09:56:38;;;;;;;;;2.00;2.00;;;;;-143.39;100.00;63593.47;4902597;29;45406;-85
2021/07/28 09:59:05;;;;;;;;;3.25;2.00;;;;;-143.39;100.00;63593.47;4885002;29;45422;-85
2021/07/28 10:01:32;;;;;;;;;1.75;1.75;;;;;-143.39;100.00;63593.47;4884318;29;46552;-85
2021/07/28 10:03:59;;;;;;;;;2.00;2.00;;;;;-143.39;100.00;63593.47;4884686;29;45415;-85
2021/07/28 10:06:31;;;;;;;;;1.25;0.50;;;;;-143.39;100.00;63593.47;4884305;29;46065;-85
2021/07/28 10:08:57;;;;;;;;;3.50;2.50;;;;;-143.39;100.00;63593.47;4867570;29;45480;-85
2021/07/28 10:11:24;;;;;;;;;4.00;3.50;;;;;-143.39;100.00;63593.47;4884802;29;45379;-85
2021/07/28 10:13:53;;;;;;;;;2.50;2.00;;;;;-143.39;100.00;63593.47;4893364;29;45546;-85
2021/07/28 10:16:18;;;;;;;;;3.25;2.00;;;;;-143.39;100.00;63593.47;4886140;29;45810;-85
2021/07/28 10:18:50;;;;;;;;;3.50;1.00;;;;;-143.39;100.00;63593.47;4884655;29;45160;-85
2021/07/28 10:21:16;;;;;;;;;3.25;2.00;;;;;-143.39;100.00;63593.47;4885141;29;45344;-86
2021/07/28 10:23:45;;;;;;;;;3.25;2.50;;;;;-143.39;100.00;63593.47;4885180;29;45587;-86
2021/07/28 10:26:17;;;;;;;;;4.75;2.00;;;;;-143.39;100.00;63593.47;4884220;29;46058;-83
2021/07/28 10:28:46;;;;;;;;;3.00;3.00;;;;;-143.39;100.00;63593.47;4884220;29;45244;-85
2021/07/28 10:31:15;;;;;;;;;2.75;2.75;;;;;-143.39;100.00;63593.47;4890658;29;45370;-85
2021/07/28 10:33:55;;;;;;;;;3.00;3.00;;;;;-143.39;100.00;63593.47;4886022;29;45435;-86
2021/07/28 10:36:41;;;;;;;;;1.25;1.00;;;;;-143.39;100.00;63593.47;4903511;29;45506;-83
2021/07/28 10:39:06;;;;;;;;;1.50;1.50;;;;;-143.39;100.00;63593.47;4904659;29;45501;-83
2021/07/28 10:41:44;;;;;;;;;1.75;0.75;;;;;-143.39;100.00;63593.47;4903428;29;45323;-84
2021/07/28 10:44:17;;;;;;;;;4.00;1.50;;;;;-143.39;100.00;63593.47;4886234;29;45456;-84
2021/07/28 10:47:05;;;;;;;;;2.00;1.00;;;;;-143.39;100.00;63593.47;4885785;29;46450;-84
2021/07/28 10:49:37;;;;;;;;;2.25;2.00;;;;;-143.39;100.00;63593.47;4878255;29;45271;-85
2021/07/28 10:52:03;;;;;;;;;2.00;1.00;;;;;-143.39;100.00;63593.47;4902949;29;45439;-84
2021/07/28 10:54:51;;;;;;;;;2.00;1.25;;;;;-143.39;100.00;63593.47;4903086;29;45437;-85
2021/07/28 10:57:35;;;;;;;;;1.75;1.50;;;;;-143.39;100.00;63593.47;4895278;29;45411;-84
2021/07/28 11:00:06;;;;;;;;;1.50;1.50;;;;;-143.39;100.00;63593.47;4884204;29;45311;-85
2021/07/28 11:03:13;;;;;;;;;1.00;1.00;;;;;-143.39;100.00;63593.47;4885063;29;45366;-84
2021/07/28 11:05:50;;;;;;;;;3.00;1.75;;;;;-143.39;100.00;63593.47;4887506;29;45526;-85
2021/07/28 11:08:19;;;;;;;;;0.50;0.50;;;;;-143.39;100.00;63593.47;4886935;29;45308;-85
2021/07/28 11:10:45;;;;;;;;;2.00;0.50;;;;;-143.39;100.00;63593.47;4899635;29;45395;-85
2021/07/28 11:13:12;;;;;;;;;1.00;1.00;;;;;-143.39;100.00;63593.47;4901148;29;45522;-85
2021/07/28 11:15:40;;;;;;;;;2.00;1.00;;;;;-143.39;100.00;63593.47;4886779;29;45562;-85